Time;durP1;ratioP1;P1;durP2;ratioP2;P2;SDS_P1;SDS_P2;PMS_P1;PMS_P2;Temp;Humidity;BMP_temperature;BMP_pressure;BME280_temperature;BME280_humidity;BME280_pressure;Samples;Min_cycle;Max_cycle;Signal;HPM_P1;HPM_P2
2022/07/27 00:02:02;;;;;;;364.42;345.27;;;;;;;19.78;55.48;96661.38;5052894;28;20221;-69
2022/07/27 00:04:27;;;;;;;353.52;334.75;;;;;;;19.55;56.41;96664.13;5052888;28;20210;-69
2022/07/27 00:06:52;;;;;;;289.13;273.85;;;;;;;19.65;56.20;96659.44;5053141;28;20190;-70
2022/07/27 00:09:18;;;;;;;177.70;168.00;;;;;;;19.57;56.62;96660.06;5052962;28;20700;-69
2022/07/27 00:11:47;;;;;;;156.82;147.80;;;;;;;19.40;57.16;96652.56;5052826;28;20615;-69
2022/07/27 00:14:12;;;;;;;153.70;145.23;;;;;;;19.53;56.87;96669.72;5052546;28;20194;-69
2022/07/27 00:16:38;;;;;;;149.15;141.13;;;;;;;19.48;56.96;96665.25;5052415;28;20542;-69
2022/07/27 00:19:03;;;;;;;135.05;127.78;;;;;;;19.58;57.01;96666.97;5052582;28;20182;-68
2022/07/27 00:21:29;;;;;;;101.40;95.97;;;;;;;19.37;57.81;96666.44;5052630;28;20643;-69
2022/07/27 00:23:55;;;;;;;90.30;85.35;;;;;;;19.30;57.91;96663.31;5052029;28;20234;-68
2022/07/27 00:26:20;;;;;;;75.65;71.60;;;;;;;19.41;57.78;96674.63;5052406;28;20209;-68
2022/07/27 00:28:46;;;;;;;77.25;73.18;;;;;;;19.45;57.24;96675.66;5052729;28;20269;-68
2022/07/27 00:31:12;;;;;;;77.78;73.47;;;;;;;19.42;57.80;96662.91;5052019;28;20182;-67
2022/07/27 00:33:37;;;;;;;80.60;76.28;;;;;;;19.44;58.01;96666.09;5051921;28;20194;-68
2022/07/27 00:36:03;;;;;;;101.78;96.45;;;;;;;19.32;58.37;96674.47;5052307;28;20255;-69
2022/07/27 00:38:28;;;;;;;117.65;111.40;;;;;;;19.31;58.50;96675.53;5052254;28;20174;-68
2022/07/27 00:40:54;;;;;;;155.57;147.43;;;;;;;19.30;58.81;96673.16;5051879;28;20562;-68
2022/07/27 00:43:19;;;;;;;181.23;171.80;;;;;;;19.28;58.59;96678.75;5044495;28;20276;-68
2022/07/27 00:45:45;;;;;;;196.95;186.52;;;;;;;19.30;58.71;96671.28;5048511;28;20189;-69
2022/07/27 00:48:10;;;;;;;211.68;200.75;;;;;;;19.56;58.24;96665.69;5052259;28;20368;-68
2022/07/27 00:50:37;;;;;;;231.00;218.93;;;;;;;19.37;58.75;96655.00;5052145;28;20182;-69
2022/07/27 00:53:03;;;;;;;239.10;226.50;;;;;;;19.41;58.68;96656.78;5052195;28;20240;-69
2022/07/27 00:55:30;;;;;;;247.65;234.55;;;;;;;19.31;58.91;96643.66;5052290;28;20182;-68
2022/07/27 00:57:56;;;;;;;264.15;250.48;;;;;;;19.42;58.68;96646.97;5051609;28;20189;-69
2022/07/27 01:00:21;;;;;;;293.83;278.73;;;;;;;19.22;59.21;96649.88;5052194;28;20174;-69
2022/07/27 01:02:47;;;;;;;290.67;275.75;;;;;;;19.37;58.82;96649.69;5051649;28;20638;-69
2022/07/27 01:05:12;;;;;;;283.33;268.77;;;;;;;19.43;58.68;96652.00;5051899;28;20292;-68
2022/07/27 01:07:38;;;;;;;246.60;233.90;;;;;;;19.42;58.81;96652.28;5051606;28;20232;-68
2022/07/27 01:10:05;;;;;;;188.73;179.02;;;;;;;19.27;59.33;96641.84;5051843;28;20181;-69
2022/07/27 01:12:31;;;;;;;138.48;131.30;;;;;;;19.17;59.60;96642.75;5051829;28;20190;-69
2022/07/27 01:14:58;;;;;;;120.95;114.65;;;;;;;19.15;59.65;96639.59;5051789;28;20186;-69
2022/07/27 01:17:25;;;;;;;88.55;83.82;;;;;;;19.19;59.62;96639.81;5051754;28;20189;-68
2022/07/27 01:19:50;;;;;;;157.60;148.82;;;;;;;19.09;59.93;96633.56;5051632;28;20189;-68
2022/07/27 01:22:16;;;;;;;188.48;178.07;;;;;;;18.96;60.47;96630.78;5051336;28;20251;-69
2022/07/27 01:24:41;;;;;;;302.80;286.15;;;;;;;19.04;60.31;96630.97;5051465;28;20267;-68
2022/07/27 01:27:07;;;;;;;373.27;352.45;;;;;;;19.15;59.73;96621.00;5051834;28;20273;-69
2022/07/27 01:29:33;;;;;;;401.03;378.30;;;;;;;18.96;60.50;96625.47;5051556;28;20174;-68
2022/07/27 01:31:59;;;;;;;343.17;323.77;;;;;;;18.83;61.05;96616.34;5051632;28;20197;-68
2022/07/27 01:34:24;;;;;;;196.30;185.87;;;;;;;18.60;62.01;96609.94;5051331;28;20607;-68
2022/07/27 01:36:50;;;;;;;213.57;202.53;;;;;;;18.59;62.05;96620.84;5051848;28;20197;-68
2022/07/27 01:39:16;;;;;;;226.93;215.20;;;;;;;18.67;61.81;96618.34;5051541;28;20186;-69
2022/07/27 01:41:42;;;;;;;282.37;267.57;;;;;;;18.66;61.95;96619.44;5051009;28;20249;-69
2022/07/27 01:44:08;;;;;;;368.95;348.98;;;;;;;18.59;62.00;96610.22;5048472;28;20599;-69
2022/07/27 01:46:33;;;;;;;354.27;335.00;;;;;;;18.62;62.07;96601.69;5050969;28;20216;-69
2022/07/27 01:48:58;;;;;;;242.23;229.27;;;;;;;18.57;62.29;96602.53;5051852;28;20177;-69
2022/07/27 01:51:24;;;;;;;236.47;223.60;;;;;;;18.51;62.52;96605.47;5051486;28;20580;-69
2022/07/27 01:53:49;;;;;;;183.60;174.03;;;;;;;18.49;62.55;96603.13;5051481;28;20189;-69
2022/07/27 01:56:15;;;;;;;161.77;153.17;;;;;;;18.43;62.67;96601.59;5051755;28;20194;-69
2022/07/27 01:58:42;;;;;;;123.73;117.23;;;;;;;18.34;63.29;96589.19;5050966;28;20190;-69
2022/07/27 02:01:07;;;;;;;115.00;108.57;;;;;;;18.28;63.56;96580.50;5051488;28;20194;-68
2022/07/27 02:03:33;;;;;;;116.20;110.03;;;;;;;18.40;63.16;96586.22;5050984;28;20305;-68
2022/07/27 02:05:59;;;;;;;128.70;121.80;;;;;;;18.37;63.08;96588.66;5051618;28;20273;-68
2022/07/27 02:08:25;;;;;;;158.77;150.47;;;;;;;18.22;64.05;96590.34;5051503;28;20189;-68
2022/07/27 02:13:34;;;;;;;182.40;172.83;;;;;;;18.24;63.27;96588.22;5051303;28;20209;-68
2022/07/27 02:16:00;;;;;;;182.87;173.23;;;;;;;18.20;63.92;96592.53;5051541;28;20561;-68
2022/07/27 02:18:26;;;;;;;182.97;173.43;;;;;;;18.19;64.13;96595.44;5051382;28;20186;-68
2022/07/27 02:20:51;;;;;;;178.23;169.07;;;;;;;18.13;64.43;96599.22;5054565;28;20618;-68
2022/07/27 02:23:16;;;;;;;175.83;166.70;;;;;;;18.22;64.12;96597.56;5054080;28;20284;-68
2022/07/27 02:25:43;;;;;;;146.03;138.33;;;;;;;18.27;63.98;96594.84;5054685;28;20198;-69
2022/07/27 02:28:08;;;;;;;122.70;116.20;;;;;;;18.28;63.84;96599.06;5055008;28;20182;-68
2022/07/27 02:30:34;;;;;;;112.87;106.80;;;;;;;18.23;64.23;96599.13;5054622;28;20186;-68
2022/07/27 02:32:59;;;;;;;116.53;110.43;;;;;;;18.22;64.24;96597.56;5054452;28;20217;-68
2022/07/27 02:35:25;;;;;;;105.57;99.87;;;;;;;18.18;64.67;96594.66;5054212;28;20228;-68
2022/07/27 02:37:50;;;;;;;106.83;100.97;;;;;;;18.23;64.16;96591.94;5054426;28;20209;-68
2022/07/27 02:40:16;;;;;;;94.17;89.27;;;;;;;18.25;64.07;96594.34;5054040;28;20194;-68
2022/07/27 02:42:42;;;;;;;85.57;81.13;;;;;;;18.29;64.34;96590.03;5053576;28;20298;-69
2022/07/27 02:45:08;;;;;;;73.83;70.00;;;;;;;18.32;64.09;96594.00;5054205;28;20685;-69
2022/07/27 02:47:34;;;;;;;59.40;56.27;;;;;;;18.25;64.54;96597.78;5054060;28;20178;-68
2022/07/27 02:50:00;;;;;;;51.97;49.07;;;;;;;18.21;64.40;96604.72;5054721;28;20196;-69
2022/07/27 02:52:26;;;;;;;51.53;48.77;;;;;;;18.21;64.77;96611.88;5054140;28;20182;-69
2022/07/27 02:54:51;;;;;;;45.80;43.30;;;;;;;18.17;64.82;96608.97;5053854;28;20189;-67
2022/07/27 02:57:17;;;;;;;44.30;41.80;;;;;;;18.01;65.21;96607.53;5053966;28;20170;-67
2022/07/27 02:59:42;;;;;;;43.23;40.80;;;;;;;17.97;65.54;96603.06;5054531;28;20214;-67
2022/07/27 03:02:08;;;;;;;35.57;33.17;;;;;;;18.05;65.45;96605.13;5052616;28;20193;-67
2022/07/27 03:04:33;;;;;;;36.97;34.73;;;;;;;17.95;65.93;96602.53;5053918;28;20206;-67
2022/07/27 03:06:58;;;;;;;33.33;31.43;;;;;;;17.93;66.10;96599.38;5054179;28;20283;-67
2022/07/27 03:09:24;;;;;;;35.03;32.90;;;;;;;18.17;65.27;96600.22;5054714;28;20261;-67
2022/07/27 03:11:49;;;;;;;39.83;37.60;;;;;;;18.12;65.53;96594.97;5053786;28;20193;-67
2022/07/27 03:14:14;;;;;;;47.03;44.33;;;;;;;18.29;64.74;96600.66;5054066;28;20762;-67
2022/07/27 03:16:40;;;;;;;45.30;42.73;;;;;;;18.17;65.23;96605.53;5057032;28;20332;-66
2022/07/27 03:19:05;;;;;;;58.07;54.97;;;;;;;18.29;64.74;96612.06;5053937;28;20208;-69
2022/07/27 03:21:31;;;;;;;65.60;62.10;;;;;;;18.18;65.06;96599.97;5054189;28;20645;-69
2022/07/27 03:23:56;;;;;;;110.10;104.10;;;;;;;18.10;65.76;96586.53;5053420;28;20273;-69
2022/07/27 03:26:22;;;;;;;130.80;123.60;;;;;;;17.99;66.15;96592.97;5053945;28;20182;-68
2022/07/27 03:28:47;;;;;;;131.40;124.50;;;;;;;18.14;65.90;96601.59;5053778;28;20186;-68
2022/07/27 03:31:12;;;;;;;136.50;129.40;;;;;;;18.19;65.56;96598.09;5052668;28;20190;-68
2022/07/27 03:33:37;;;;;;;148.37;140.57;;;;;;;17.94;66.50;96596.47;5053321;28;20194;-68
2022/07/27 03:36:03;;;;;;;163.40;154.87;;;;;;;18.11;66.13;96591.53;5053954;28;20272;-68
2022/07/27 03:38:29;;;;;;;143.07;135.47;;;;;;;18.05;66.17;96597.97;5053253;28;20263;-68
2022/07/27 03:40:54;;;;;;;131.53;124.73;;;;;;;18.01;66.51;96591.63;5053027;28;20642;-68
2022/07/27 03:43:20;;;;;;;109.40;103.47;;;;;;;17.98;66.85;96583.44;5052014;28;20206;-68
2022/07/27 03:45:45;;;;;;;83.30;78.83;;;;;;;17.88;67.25;96586.19;5053089;28;20182;-68
2022/07/27 03:48:10;;;;;;;85.40;80.67;;;;;;;17.81;67.65;96595.22;5053137;28;20263;-68
2022/07/27 03:50:36;;;;;;;92.57;87.50;;;;;;;17.94;67.07;96587.72;5053215;28;20594;-68
2022/07/27 03:53:02;;;;;;;92.83;87.77;;;;;;;17.68;68.33;96589.75;5053234;28;20570;-68
2022/07/27 03:55:28;;;;;;;100.90;95.53;;;;;;;17.73;68.13;96589.72;5052988;28;20363;-68
2022/07/27 03:57:53;;;;;;;106.40;100.70;;;;;;;17.63;68.55;96593.25;5053050;28;20218;-69
2022/07/27 04:00:19;;;;;;;107.87;101.93;;;;;;;17.82;67.84;96599.47;5052773;28;20702;-69
2022/07/27 04:02:44;;;;;;;117.30;111.07;;;;;;;17.90;67.81;96608.69;5046544;28;20548;-68
2022/07/27 04:05:10;;;;;;;114.93;108.70;;;;;;;17.73;68.29;96609.06;5052884;28;20289;-68
2022/07/27 04:07:36;;;;;;;118.60;112.37;;;;;;;17.73;68.34;96611.72;5052470;28;20186;-68
2022/07/27 04:10:03;;;;;;;123.10;116.10;;;;;;;17.80;68.24;96611.41;5052860;28;20576;-68
2022/07/27 04:12:28;;;;;;;122.93;116.40;;;;;;;17.68;68.89;96608.31;5051530;28;20190;-69
2022/07/27 04:14:54;;;;;;;127.57;120.80;;;;;;;17.63;68.77;96601.19;5052127;28;20197;-68
2022/07/27 04:17:19;;;;;;;159.87;151.33;;;;;;;17.64;69.06;96616.03;5052675;28;20274;-68
2022/07/27 04:19:44;;;;;;;195.23;184.53;;;;;;;17.62;69.36;96604.91;5052427;28;20180;-68
2022/07/27 04:22:10;;;;;;;234.13;221.67;;;;;;;17.67;69.24;96610.16;5052291;28;20182;-68
2022/07/27 04:24:35;;;;;;;241.07;228.33;;;;;;;17.58;69.57;96618.97;5052926;28;20594;-68
2022/07/27 04:27:01;;;;;;;272.63;258.00;;;;;;;17.75;69.23;96616.75;5052672;28;20244;-69
2022/07/27 04:29:26;;;;;;;227.87;215.90;;;;;;;17.59;69.77;96615.25;5052658;28;20213;-69
2022/07/27 04:31:52;;;;;;;211.53;200.13;;;;;;;17.57;70.20;96618.16;5052449;28;20190;-68
2022/07/27 04:34:17;;;;;;;183.60;173.30;;;;;;;17.62;69.83;96623.47;5051723;28;20277;-68
2022/07/27 04:36:43;;;;;;;138.97;131.47;;;;;;;17.29;71.32;96621.50;5052386;28;20314;-68
2022/07/27 04:39:08;;;;;;;103.17;97.53;;;;;;;17.39;71.11;96624.88;5050941;28;20650;-68
2022/07/27 04:41:34;;;;;;;82.13;77.57;;;;;;;17.35;71.22;96628.34;5050846;28;20223;-68
2022/07/27 04:44:00;;;;;;;75.97;71.70;;;;;;;17.40;71.64;96633.63;5036311;28;20206;-69
2022/07/27 04:46:26;;;;;;;69.53;65.80;;;;;;;17.46;71.19;96628.03;5051357;28;20253;-68
2022/07/27 04:48:51;;;;;;;73.30;69.27;;;;;;;17.35;71.70;96631.00;5051691;28;20186;-68
2022/07/27 04:51:17;;;;;;;43.53;41.10;;;;;;;17.23;72.61;96626.03;5052148;28;20232;-68
2022/07/27 04:53:43;;;;;;;33.67;31.73;;;;;;;17.30;72.40;96631.03;5051751;28;20178;-68
2022/07/27 04:56:09;;;;;;;31.87;29.87;;;;;;;17.19;72.94;96625.00;5052017;28;20182;-68
2022/07/27 04:58:35;;;;;;;28.50;26.53;;;;;;;17.29;72.85;96626.78;5052079;28;20178;-68
2022/07/27 05:01:00;;;;;;;25.13;23.50;;;;;;;17.39;72.47;96632.03;5051642;28;20208;-68
2022/07/27 05:03:26;;;;;;;33.63;31.77;;;;;;;17.40;72.53;96634.41;5051313;28;20198;-68
2022/07/27 05:05:52;;;;;;;26.57;24.97;;;;;;;17.32;72.92;96637.66;5051855;28;20174;-68
2022/07/27 05:08:18;;;;;;;24.27;22.63;;;;;;;17.27;73.06;96637.69;5051716;28;20702;-68
2022/07/27 05:10:43;;;;;;;25.27;23.57;;;;;;;17.46;72.81;96635.97;5051815;28;20268;-67
2022/07/27 05:13:08;;;;;;;25.87;24.20;;;;;;;17.44;72.53;96638.09;5051134;28;20192;-68
2022/07/27 05:15:34;;;;;;;26.30;24.60;;;;;;;17.40;72.83;96641.56;5060749;28;20197;-68
2022/07/27 05:17:59;;;;;;;25.80;23.63;;;;;;;17.24;73.41;96642.72;5051762;28;20269;-68
2022/07/27 05:20:24;;;;;;;27.73;26.03;;;;;;;17.41;73.25;96649.25;5051591;28;20215;-67
2022/07/27 05:22:50;;;;;;;31.20;29.37;;;;;;;17.32;73.56;96650.13;5051999;28;20182;-67
2022/07/27 05:25:16;;;;;;;27.67;26.17;;;;;;;17.40;73.48;96652.97;5051335;28;20202;-67
2022/07/27 05:27:41;;;;;;;25.40;23.70;;;;;;;17.60;72.43;96649.47;5051341;28;20280;-67
2022/07/27 05:30:08;;;;;;;31.73;29.90;;;;;;;17.49;72.90;96655.06;5051628;28;20189;-67
2022/07/27 05:32:33;;;;;;;31.93;30.03;;;;;;;17.65;72.55;96656.59;5051996;28;20220;-68
2022/07/27 05:34:59;;;;;;;37.80;35.60;;;;;;;17.80;71.88;96654.63;5051773;28;20225;-67
2022/07/27 05:37:24;;;;;;;45.30;42.73;;;;;;;17.72;72.22;96657.09;5051174;28;20170;-67
2022/07/27 05:39:49;;;;;;;62.87;59.30;;;;;;;17.82;71.75;96667.63;5051694;28;20193;-67
2022/07/27 05:42:15;;;;;;;51.40;48.37;;;;;;;17.74;72.14;96665.53;5050296;28;20588;-67
2022/07/27 05:44:40;;;;;;;57.27;53.93;;;;;;;17.73;72.13;96672.69;5050568;28;20208;-67
2022/07/27 05:47:06;;;;;;;54.50;51.07;;;;;;;17.80;72.11;96669.75;5049888;28;20224;-69
2022/07/27 05:49:31;;;;;;;59.33;56.03;;;;;;;17.87;71.94;96672.88;5051288;28;20189;-68
2022/07/27 05:51:56;;;;;;;64.17;60.40;;;;;;;17.72;72.20;96667.69;5051404;28;20193;-68
2022/07/27 05:54:22;;;;;;;57.63;54.40;;;;;;;17.84;72.10;96673.41;5054580;28;20213;-68
2022/07/27 05:56:47;;;;;;;61.37;57.77;;;;;;;17.78;72.37;96680.63;5055408;28;20583;-68
2022/07/27 05:59:13;;;;;;;76.37;71.93;;;;;;;17.96;71.67;96681.03;5055087;28;20269;-68
2022/07/27 06:01:38;;;;;;;71.77;67.87;;;;;;;17.79;72.25;96679.56;5055124;28;20178;-67
2022/07/27 06:04:04;;;;;;;62.97;59.43;;;;;;;17.99;71.96;96681.28;5055022;28;20320;-68
2022/07/27 06:09:15;;;;;;;68.40;64.50;;;;;;;17.89;72.11;96675.28;5054892;28;20188;-68
2022/07/27 06:11:40;;;;;;;69.33;65.53;;;;;;;17.96;71.89;96686.34;5053273;28;20686;-68
2022/07/27 06:14:06;;;;;;;76.70;72.33;;;;;;;17.95;72.04;96692.72;5054128;28;20312;-68
2022/07/27 06:16:31;;;;;;;85.57;80.80;;;;;;;18.03;71.66;96692.94;5054211;28;20190;-67
2022/07/27 06:18:56;;;;;;;91.00;85.83;;;;;;;18.06;71.79;96692.38;5054448;28;20227;-67
2022/07/27 06:21:26;;;;;;;117.63;111.03;;;;;;;18.09;71.40;96691.03;5053652;28;20186;-68
2022/07/27 06:23:53;;;;;;;130.57;123.70;;;;;;;17.97;72.18;96695.88;5052646;28;20567;-67
2022/07/27 06:26:19;;;;;;;155.87;147.57;;;;;;;18.16;71.22;96688.88;5054314;28;20182;-68
2022/07/27 06:28:44;;;;;;;208.97;197.90;;;;;;;18.48;70.36;96689.13;5054768;28;20190;-68
2022/07/27 06:31:10;;;;;;;264.13;249.77;;;;;;;18.55;70.03;96699.47;5054490;28;20278;-68
2022/07/27 06:33:35;;;;;;;288.47;272.70;;;;;;;18.65;69.74;96702.03;5054228;28;20235;-68
2022/07/27 06:36:01;;;;;;;354.20;335.17;;;;;;;18.40;70.27;96699.53;5054689;28;20529;-67
2022/07/27 06:38:27;;;;;;;320.80;303.77;;;;;;;18.50;70.05;96705.56;5054394;28;20483;-68
2022/07/27 06:40:53;;;;;;;383.90;362.73;;;;;;;18.91;68.54;96707.88;5053700;28;20626;-68
2022/07/27 06:43:20;;;;;;;351.48;332.23;;;;;;;19.00;69.02;96708.84;5053050;28;20197;-68
2022/07/27 06:45:47;;;;;;;500.87;472.00;;;;;;;18.80;69.22;96707.19;5051009;28;20217;-68
2022/07/27 06:48:12;;;;;;;564.65;531.88;;;;;;;19.03;68.31;96701.09;5052986;28;20182;-68
2022/07/27 06:50:37;;;;;;;610.33;574.33;;;;;;;18.68;69.18;96699.59;5053727;28;20182;-67
2022/07/27 06:53:03;;;;;;;600.17;565.28;;;;;;;18.81;69.13;96700.81;5054146;28;20186;-69
2022/07/27 06:55:28;;;;;;;466.92;440.98;;;;;;;18.11;71.93;96699.53;5053974;28;20193;-68
2022/07/27 06:57:54;;;;;;;523.47;494.48;;;;;;;18.56;70.74;96709.78;5053472;28;20208;-68
2022/07/27 07:00:20;;;;;;;347.23;328.15;;;;;;;19.04;68.89;96704.56;5052488;28;20181;-66
2022/07/27 07:02:51;;;;;;;238.65;225.52;;;;;;;18.86;68.89;96707.91;5053674;28;20525;-68
2022/07/27 07:05:16;;;;;;;304.67;288.17;;;;;;;18.57;70.48;96706.06;5051740;28;20206;-68
2022/07/27 07:07:41;;;;;;;216.45;204.50;;;;;;;18.63;70.38;96702.28;5051487;28;20653;-68
2022/07/27 07:10:07;;;;;;;207.45;196.05;;;;;;;18.52;71.01;96698.13;5053256;28;20193;-68
2022/07/27 07:12:33;;;;;;;189.60;179.07;;;;;;;18.58;69.68;96702.34;5053220;28;20198;-68
2022/07/27 07:14:58;;;;;;;125.63;118.68;;;;;;;18.76;69.72;96708.03;5053402;28;20186;-68
2022/07/27 07:17:23;;;;;;;142.25;134.27;;;;;;;18.58;69.90;96701.53;5053192;28;20185;-68
2022/07/27 07:19:49;;;;;;;176.77;166.77;;;;;;;18.34;71.17;96698.00;5047019;28;20690;-68
2022/07/27 07:22:14;;;;;;;218.43;206.38;;;;;;;18.83;69.93;96700.53;5050181;28;20607;-68
2022/07/27 07:24:39;;;;;;;150.75;142.52;;;;;;;18.94;69.01;96702.81;5047034;28;20271;-68
2022/07/27 07:27:05;;;;;;;117.68;111.10;;;;;;;18.86;69.15;96692.78;5049015;28;20618;-68
2022/07/27 07:29:30;;;;;;;129.23;122.18;;;;;;;19.09;67.75;96697.31;5052490;28;20222;-68
2022/07/27 07:31:56;;;;;;;104.68;98.97;;;;;;;19.02;68.72;96701.38;5046958;28;20194;-68
2022/07/27 07:34:21;;;;;;;108.55;102.68;;;;;;;19.49;66.78;96704.06;5051577;28;20269;-68
2022/07/27 07:36:46;;;;;;;94.15;88.97;;;;;;;20.14;64.81;96698.09;5053112;28;20178;-68
2022/07/27 07:39:12;;;;;;;185.57;175.40;;;;;;;20.22;64.09;96694.81;5053244;28;20178;-68
2022/07/27 07:41:37;;;;;;;112.75;106.68;;;;;;;20.48;62.98;96693.34;5051746;28;20225;-69
2022/07/27 07:44:03;;;;;;;82.82;78.30;;;;;;;19.79;65.50;96696.75;5052461;28;20194;-68
2022/07/27 07:46:28;;;;;;;118.78;112.45;;;;;;;19.55;67.07;96696.81;5052747;28;20190;-68
2022/07/27 07:48:54;;;;;;;91.65;86.75;;;;;;;20.06;65.45;96696.09;5052133;28;20288;-68
2022/07/27 07:51:19;;;;;;;49.03;46.00;;;;;;;19.79;65.72;96688.75;5053064;28;20213;-70
2022/07/27 07:53:44;;;;;;;45.63;42.70;;;;;;;19.73;66.07;96692.56;5052684;28;20280;-67
2022/07/27 07:56:10;;;;;;;41.35;39.05;;;;;;;19.62;66.37;96694.56;5052064;28;20202;-67
2022/07/27 07:58:35;;;;;;;46.20;43.47;;;;;;;19.06;68.38;96697.06;5052907;28;20281;-67
2022/07/27 08:01:01;;;;;;;41.05;38.17;;;;;;;20.22;64.70;96690.28;5052890;28;20269;-67
2022/07/27 08:03:26;;;;;;;46.97;44.10;;;;;;;20.25;64.40;96696.88;5051936;28;20236;-67
2022/07/27 08:05:51;;;;;;;59.55;56.25;;;;;;;20.30;62.90;96702.91;5052446;28;20213;-68
2022/07/27 08:08:17;;;;;;;52.95;50.05;;;;;;;19.87;64.66;96702.22;5046728;28;20323;-68
2022/07/27 08:10:42;;;;;;;44.42;41.88;;;;;;;19.83;65.24;96711.06;5051950;28;20188;-68
2022/07/27 08:13:08;;;;;;;42.22;39.72;;;;;;;19.22;67.59;96711.00;5051782;28;20214;-66
2022/07/27 08:15:33;;;;;;;46.78;44.13;;;;;;;19.96;64.69;96709.53;5050547;28;20184;-66
2022/07/27 08:17:59;;;;;;;45.67;42.90;;;;;;;20.30;63.03;96708.22;5051929;28;20189;-67
2022/07/27 08:20:27;;;;;;;45.78;43.17;;;;;;;20.26;63.80;96709.91;5047148;28;20548;-67
2022/07/27 08:22:52;;;;;;;49.97;46.45;;;;;;;20.43;62.85;96706.72;5046750;28;20297;-68
2022/07/27 08:25:18;;;;;;;54.00;50.70;;;;;;;21.29;60.56;96707.09;5052380;28;20284;-67
2022/07/27 08:27:43;;;;;;;79.93;75.50;;;;;;;21.09;60.63;96702.91;5051633;28;20187;-67
2022/07/27 08:30:09;;;;;;;72.68;68.47;;;;;;;21.26;60.06;96702.34;5051801;28;20190;-67
2022/07/27 08:33:07;;;;;;;64.30;60.47;;;;;;;20.60;61.69;96706.19;5052008;28;20297;-68
2022/07/27 08:35:33;;;;;;;73.85;69.22;;;;;;;20.96;61.24;96709.78;5027100;28;20253;-67
2022/07/27 08:38:00;;;;;;;52.35;49.35;;;;;;;21.27;59.96;96715.41;5050126;28;20257;-68
2022/07/27 08:40:26;;;;;;;44.05;41.20;;;;;;;20.94;60.39;96724.53;5050400;28;20193;-67
2022/07/27 08:42:51;;;;;;;43.22;40.67;;;;;;;20.88;61.01;96717.69;5050461;28;20278;-67
2022/07/27 08:45:18;;;;;;;57.72;54.40;;;;;;;21.04;60.91;96721.66;5051906;28;20233;-68
2022/07/27 08:47:45;;;;;;;64.70;61.08;;;;;;;21.19;60.04;96710.75;5052183;28;20221;-68
2022/07/27 08:50:24;;;;;;;59.40;55.95;;;;;;;21.11;60.46;96712.19;5051856;28;20267;-68
2022/07/27 08:52:54;;;;;;;53.35;50.17;;;;;;;21.33;59.87;96716.09;5051896;28;20231;-68
2022/07/27 08:55:20;;;;;;;45.38;42.70;;;;;;;21.33;58.02;96716.09;5051632;28;20178;-68
2022/07/27 08:57:45;;;;;;;67.60;63.95;;;;;;;21.34;58.63;96707.78;5051685;28;20285;-68
2022/07/27 09:00:11;;;;;;;83.65;79.03;;;;;;;21.86;57.99;96705.63;5051544;28;20264;-68
2022/07/27 09:02:39;;;;;;;122.45;115.70;;;;;;;21.33;59.19;96713.41;5051399;28;20190;-68
2022/07/27 09:05:06;;;;;;;108.25;102.47;;;;;;;21.79;57.13;96722.03;5051662;28;20201;-68
2022/07/27 09:07:32;;;;;;;134.07;126.82;;;;;;;21.27;59.09;96710.06;5045631;28;20277;-68
2022/07/27 09:09:58;;;;;;;110.82;104.80;;;;;;;21.53;59.24;96707.66;5046933;28;20284;-69
2022/07/27 09:12:28;;;;;;;102.70;97.18;;;;;;;21.84;57.78;96711.28;5044871;28;20190;-68
2022/07/27 09:15:11;;;;;;;96.78;91.22;;;;;;;22.17;56.72;96711.91;5047029;28;20230;-68
2022/07/27 09:17:39;;;;;;;38.67;36.58;;;;;;;22.34;56.05;96709.38;5046003;28;20185;-68
2022/07/27 09:20:15;;;;;;;34.22;31.88;;;;;;;22.61;55.33;96719.13;5045907;28;20198;-67
2022/07/27 09:22:52;;;;;;;31.90;30.13;;;;;;;21.94;57.14;96720.94;5046689;28;20178;-67
2022/07/27 09:25:23;;;;;;;33.85;31.38;;;;;;;21.76;57.50;96708.53;5050666;28;20284;-67
2022/07/27 09:27:53;;;;;;;39.85;37.53;;;;;;;23.04;54.56;96707.91;5053311;28;20178;-67
2022/07/27 09:30:20;;;;;;;79.18;75.07;;;;;;;23.57;52.10;96713.94;5056036;28;20635;-67
2022/07/27 09:32:58;;;;;;;118.88;112.70;;;;;;;23.68;51.64;96708.31;5054807;28;20643;-67
2022/07/27 09:35:25;;;;;;;104.65;99.18;;;;;;;23.20;52.97;96704.50;5054913;28;20261;-67
2022/07/27 09:37:51;;;;;;;84.75;80.00;;;;;;;22.70;53.79;96711.94;5056022;28;20647;-68
2022/07/27 09:40:19;;;;;;;99.65;94.53;;;;;;;22.83;54.58;96713.00;5055431;28;20339;-67
2022/07/27 09:42:45;;;;;;;93.82;88.78;;;;;;;22.72;54.08;96714.34;5053449;28;20238;-67
2022/07/27 09:45:31;;;;;;;90.43;85.43;;;;;;;22.82;53.39;96721.31;5055113;28;20201;-67
2022/07/27 09:48:07;;;;;;;130.88;123.90;;;;;;;22.97;52.64;96720.91;5054510;28;20177;-67
2022/07/27 09:50:33;;;;;;;131.00;123.72;;;;;;;22.53;53.50;96727.06;5055631;28;20225;-67
2022/07/27 09:53:11;;;;;;;66.30;62.33;;;;;;;22.92;52.35;96723.72;5055500;28;20201;-67
2022/07/27 09:55:37;;;;;;;60.00;56.50;;;;;;;22.72;53.58;96723.16;5055568;28;20701;-67
2022/07/27 09:58:02;;;;;;;67.45;63.75;;;;;;;22.41;54.30;96722.28;5055066;28;20182;-67
2022/07/27 10:00:28;;;;;;;79.68;75.20;;;;;;;22.61;54.43;96727.16;5055271;28;20186;-67
2022/07/27 10:02:54;;;;;;;86.22;81.57;;;;;;;23.16;53.24;96722.28;5054709;28;20663;-67
2022/07/27 10:05:22;;;;;;;133.05;126.38;;;;;;;22.85;54.92;96726.84;5054808;28;20198;-67
2022/07/27 10:07:49;;;;;;;126.07;119.65;;;;;;;22.67;54.84;96722.47;5054891;28;20186;-68
2022/07/27 10:10:15;;;;;;;156.20;148.45;;;;;;;22.56;54.83;96721.16;5052252;28;20186;-69
2022/07/27 10:12:44;;;;;;;126.10;119.75;;;;;;;22.62;53.47;96727.94;5049805;28;20182;-68
2022/07/27 10:15:11;;;;;;;140.05;132.80;;;;;;;21.97;55.13;96731.81;5048080;28;20231;-68
2022/07/27 10:17:38;;;;;;;168.75;160.38;;;;;;;22.00;55.06;96721.66;5048041;28;20233;-67
2022/07/27 10:20:08;;;;;;;46.67;44.05;;;;;;;21.69;57.04;96721.47;5050237;28;20199;-67
2022/07/27 10:22:58;;;;;;;18.48;17.27;;;;;;;21.87;56.70;96717.88;5054395;28;20547;-68
2022/07/27 10:25:25;;;;;;;26.23;24.85;;;;;;;22.62;54.53;96720.72;5054894;28;20201;-67
2022/07/27 10:28:24;;;;;;;94.45;89.68;;;;;;;22.03;56.02;96723.72;5053562;28;20212;-67
2022/07/27 10:30:49;;;;;;;67.55;64.05;;;;;;;21.81;55.40;96725.22;5029656;28;20198;-68
2022/07/27 10:33:45;;;;;;;20.45;18.95;;;;;;;22.23;55.20;96728.59;5053599;28;20535;-67
2022/07/27 10:36:15;;;;;;;21.38;20.00;;;;;;;21.96;55.72;96724.91;5054130;28;20194;-66
2022/07/27 10:38:50;;;;;;;20.98;19.70;;;;;;;22.49;55.14;96718.09;5054290;28;20530;-69
2022/07/27 10:41:21;;;;;;;28.23;26.48;;;;;;;22.10;56.00;96724.09;5046942;28;20303;-66
2022/07/27 10:43:46;;;;;;;48.65;45.75;;;;;;;22.43;55.20;96719.31;5054216;28;20209;-66
2022/07/27 10:46:19;;;;;;;93.70;88.38;;;;;;;23.00;53.86;96709.63;5054115;28;20173;-66
2022/07/27 10:48:45;;;;;;;163.98;155.65;;;;;;;23.34;52.17;96715.13;5052974;28;20261;-66
2022/07/27 10:51:11;;;;;;;101.65;96.30;;;;;;;23.21;51.61;96721.34;5054190;28;20263;-65
2022/07/27 10:53:40;;;;;;;282.20;266.85;;;;;;;23.02;51.69;96712.75;5053979;28;20182;-66
2022/07/27 10:56:07;;;;;;;77.10;72.93;;;;;;;22.79;52.83;96722.72;5054036;28;20186;-66
2022/07/27 10:58:33;;;;;;;127.20;120.53;;;;;;;22.87;51.83;96719.31;5054043;28;20276;-66
2022/07/27 11:01:00;;;;;;;261.10;246.82;;;;;;;22.65;53.16;96709.41;5053813;28;20265;-67
2022/07/27 11:03:29;;;;;;;352.63;332.58;;;;;;;23.14;51.94;96713.78;5053685;28;20274;-67
2022/07/27 11:06:21;;;;;;;477.13;449.98;;;;;;;23.14;51.55;96705.75;5052506;28;20836;-66
2022/07/27 11:08:48;;;;;;;378.90;357.20;;;;;;;23.51;50.38;96703.72;5051916;28;20185;-66
2022/07/27 11:11:22;;;;;;;426.70;403.35;;;;;;;23.63;50.45;96704.66;5053776;28;20194;-66
2022/07/27 11:13:53;;;;;;;325.98;307.77;;;;;;;23.33;51.15;96704.72;5053124;28;20181;-66